Latest Coastal Weather Observations for Mandora

IDW60701

Issued at 2:32 pm WST Friday 27 May 2016 (issued every 10 minutes, with the page automatically refreshed every 10 minutes)

About coastal observations | Map of coastal stations | Coastal observations for WA | Marine services | Other Formats
Station Details ID: 004019 Name: MANDORA Lat: -19.74 Lon: 120.84 Height: 7.5 m
Data from the previous 72 hours. | See also: Recent months at Mandora
Date/Time
WST
Temp

°C
Wind Pressure Rain
since 9am
mm
Weather Cloud Vis
km
Sea
Height
m
Swell
Dir
 
Speed
knots
Gust
knots
hPa Trend Height
m
Period
s
Dir
27/02:30pm 31.7 N 7 10 1012.5 - 0.0 - - - - - - -
27/02:00pm 32.0 N 8 11 1012.7 - 0.0 - - - - - - -
27/01:30pm 32.7 NNE 5 8 1013.1 - 0.0 - - - - - - -
27/01:00pm 32.9 NE 5 9 1013.5 - 0.0 - - - - - - -
27/12:30pm 32.9 NE 5 9 1014.0 - 0.0 - - - - - - -
27/12:00pm 32.4 E 4 8 1014.4 - 0.0 - - - - - - -
27/11:30am 32.2 E 6 10 1014.8 - 0.0 - - - - - - -
27/11:00am 31.4 ENE 7 12 1015.3 - 0.0 - - - - - - -
27/10:30am 30.9 ENE 7 13 1015.8 - 0.0 - - - - - - -
27/10:00am 30.5 E 7 13 1015.9 - 0.0 - - - - - - -
27/09:30am 29.0 E 8 12 1016.1 - 0.0 - - - - - - -
27/09:00am 26.5 ESE 9 15 1016.0 - 0.0 - - - - - - -
27/08:30am 24.1 SE 7 12 1016.2 - 0.0 - - - - - - -
27/08:00am 21.1 SSE 5 8 1016.0 - 0.0 - - - - - - -
27/07:30am 19.9 S 3 3 1015.8 - 0.0 - - - - - - -
27/07:00am 17.8 S 4 4 1015.6 - 0.0 - - - - - - -
27/06:30am 16.3 ESE 3 4 1015.3 - 0.0 - - - - - - -
27/06:00am 16.2 ENE 3 5 1014.9 - 0.0 - - - - - - -
27/05:30am 16.3 SE 3 4 1014.5 - 0.0 - - - - - - -
27/05:00am 16.9 CALM 0 2 1014.4 - 0.0 - - - - - - -
27/04:30am 18.2 E 2 3 1014.3 - 0.0 - - - - - - -
27/04:00am 19.0 SE 4 5 1014.3 - 0.0 - - - - - - -
27/03:30am 19.8 SE 4 5 1014.4 - 0.0 - - - - - - -
27/03:00am 20.1 S 4 5 1014.4 - 0.0 - - - - - - -
27/02:30am 20.1 SSW 6 6 1014.5 - 0.0 - - - - - - -
27/02:00am 20.1 SSW 5 5 1014.4 - 0.0 - - - - - - -
27/01:30am 19.6 SSW 4 5 1014.5 - 0.0 - - - - - - -
27/01:00am 18.3 S 4 5 1014.5 - 0.0 - - - - - - -
27/12:30am 17.6 CALM 0 0 1014.7 - 0.0 - - - - - - -
27/12:00am 17.9 CALM 0 0 1015.1 - 0.0 - - - - - - -
 
Date/Time
WST
Temp

°C
Wind Pressure Rain
since 9am
mm
Weather Cloud Vis
km
Sea
Height
m
Swell
Dir
 
Speed
knots
Gust
knots
hPa Trend Height
m
Period
s
Dir
26/11:30pm 18.4 CALM 0 0 1015.0 - 0.0 - - - - - - -
26/11:00pm 18.8 CALM 0 0 1015.0 - 0.0 - - - - - - -
26/10:30pm 19.5 CALM 0 0 1014.9 - 0.0 - - - - - - -
26/10:00pm 21.2 SW 3 4 1014.9 - 0.0 - - - - - - -
26/09:30pm 21.5 SW 4 5 1015.1 - 0.0 - - - - - - -
26/09:00pm 21.3 SW 5 6 1015.2 - 0.0 - - - - - - -
26/08:30pm 21.4 SW 4 5 1014.9 - 0.0 - - - - - - -
26/08:00pm 21.5 WNW 3 4 1014.6 - 0.0 - - - - - - -
26/07:30pm 21.9 WSW 5 6 1014.4 - 0.0 - - - - - - -
26/07:00pm 22.5 WNW 4 5 1013.9 - 0.0 - - - - - - -
26/06:30pm 23.1 NW 4 5 1013.5 - 0.0 - - - - - - -
26/06:00pm 23.8 WNW 4 5 1013.4 - 0.0 - - - - - - -
26/05:30pm 24.8 NW 5 7 1013.2 - 0.0 - - - - - - -
26/05:00pm 26.4 WNW 6 8 1013.1 - 0.0 - - - - - - -
26/04:30pm 27.5 WNW 7 11 1012.8 - 0.0 - - - - - - -
26/04:00pm 28.0 WNW 9 12 1012.8 - 0.0 - - - - - - -
26/03:30pm 28.4 WNW 9 15 1012.7 - 0.0 - - - - - - -
26/03:00pm 29.1 NW 9 13 1012.7 - 0.0 - - - - - - -
26/02:30pm 29.1 WNW 9 13 1012.7 - 0.0 - - - - - - -
26/02:00pm 29.8 NW 9 12 1012.9 - 0.0 - - - - - - -
26/01:30pm 30.2 NW 9 11 1013.1 - 0.0 - - - - - - -
26/01:00pm 30.2 WNW 8 13 1013.3 - 0.0 - - - - - - -
26/12:30pm 29.9 W 9 15 1013.8 - 0.0 - - - - - - -
26/12:00pm 29.4 W 10 13 1014.3 - 0.0 - - - - - - -
26/11:30am 29.0 W 10 15 1015.0 - 0.0 - - - - - - -
26/11:00am 28.7 WNW 9 14 1015.4 - 0.0 - - - - - - -
26/10:30am 28.2 W 8 11 1015.6 - 0.0 - - - - - - -
26/10:00am 28.1 WNW 7 11 1015.8 - 0.0 - - - - - - -
26/09:30am 27.2 WSW 7 11 1015.8 - 0.0 - - - - - - -
26/09:00am 26.0 WSW 6 9 1015.7 - 0.0 - - - - - - -
26/08:30am 23.8 WSW 6 8 1015.4 - 0.0 - - - - - - -
26/08:00am 23.4 SW 6 8 1015.2 - 0.0 - - - - - - -
26/07:30am 22.3 SW 6 9 1015.0 - 0.0 - - - - - - -
26/07:00am 21.9 SW 6 9 1014.6 - 0.0 - - - - - - -
26/06:30am 21.6 SSW 4 5 1014.2 - 0.0 - - - - - - -
26/06:00am 20.8 SSW 4 5 1014.1 - 0.0 - - - - - - -
26/05:30am 20.5 SSW 5 7 1013.8 - 0.0 - - - - - - -
26/05:00am 20.1 SSW 5 6 1013.6 - 0.0 - - - - - - -
26/04:30am 20.1 SSW 5 6 1013.3 - 0.0 - - - - - - -
26/04:00am 20.2 SW 5 6 1013.3 - 0.0 - - - - - - -
26/03:30am 20.2 SW 5 6 1013.3 - 0.0 - - - - - - -
26/03:00am 20.2 SW 4 5 1013.1 - 0.0 - - - - - - -
26/02:30am 20.1 SW 5 6 1013.2 - 0.0 - - - - - - -
26/02:00am 19.6 SW 4 4 1013.4 - 0.0 - - - - - - -
26/01:30am 20.4 SW 4 4 1013.7 - 0.0 - - - - - - -
26/01:00am 20.4 SW 4 5 1013.7 - 0.0 - - - - - - -
26/12:30am 20.3 SSW 5 5 1013.7 - 0.0 - - - - - - -
26/12:00am 19.5 SW 4 5 1013.8 - 0.0 - - - - - - -
 
Date/Time
WST
Temp

°C
Wind Pressure Rain
since 9am
mm
Weather Cloud Vis
km
Sea
Height
m
Swell
Dir
 
Speed
knots
Gust
knots
hPa Trend Height
m
Period
s
Dir
25/11:30pm 19.6 SW 4 5 1013.8 - 0.0 - - - - - - -
25/11:00pm 20.0 WSW 4 5 1013.9 - 0.0 - - - - - - -
25/10:30pm 20.1 WSW 4 5 1013.9 - 0.0 - - - - - - -
25/10:00pm 20.2 WSW 4 5 1013.9 - 0.0 - - - - - - -
25/09:30pm 20.3 W 5 6 1014.0 - 0.0 - - - - - - -
25/09:00pm 20.3 W 5 6 1013.9 - 0.0 - - - - - - -
25/08:30pm 20.6 W 4 5 1013.8 - 0.0 - - - - - - -
25/08:00pm 21.1 W 5 6 1013.7 - 0.0 - - - - - - -
25/07:30pm 21.9 WNW 5 6 1013.5 - 0.0 - - - - - - -
25/07:00pm 22.0 WNW 6 7 1013.3 - 0.0 - - - - - - -
25/06:30pm 22.3 WNW 5 7 1013.1 - 0.0 - - - - - - -
25/06:00pm 22.9 WNW 5 6 1012.8 - 0.0 - - - - - - -
25/05:30pm 24.1 WNW 5 6 1012.5 - 0.0 - - - - - - -
25/05:00pm 25.9 WNW 7 9 1012.1 - 0.0 - - - - - - -
25/04:30pm 27.5 WNW 6 8 1011.7 - 0.0 - - - - - - -
25/04:00pm 28.3 WNW 7 11 1011.6 - 0.0 - - - - - - -
25/03:30pm 29.2 NW 7 10 1011.3 - 0.0 - - - - - - -
25/03:00pm 29.8 NW 6 8 1011.2 - 0.0 - - - - - - -
25/02:30pm 29.9 NNW 6 10 1011.3 - 0.0 - - - - - - -
25/02:00pm 29.7 NW 7 11 1011.4 - 0.0 - - - - - - -
25/01:30pm 29.5 NNW 6 9 1011.5 - 0.0 - - - - - - -
25/01:00pm 29.8 NNW 7 9 1011.8 - 0.0 - - - - - - -
25/12:30pm 30.5 NNW 7 10 1012.3 - 0.0 - - - - - - -
25/12:00pm 30.1 NNW 6 8 1012.7 - 0.0 - - - - - - -
25/11:30am 30.0 NW 5 8 1013.1 - 0.0 - - - - - - -
25/11:00am 29.8 NNW 4 6 1013.5 - 0.0 - - - - - - -
25/10:30am 28.9 NW 4 7 1013.8 - 0.0 - - - - - - -
25/10:00am 27.9 WNW 3 5 1014.0 - 0.0 - - - - - - -
25/09:30am 26.4 SSW 5 9 1014.3 - 0.0 - - - - - - -
25/09:00am 25.2 SW 5 7 1014.5 - 0.0 - - - - - - -
25/08:30am 22.9 CALM 0 0 1014.3 - 0.0 - - - - - - -
25/08:00am 20.9 CALM 0 0 1014.1 - 0.0 - - - - - - -
25/07:30am 19.0 CALM 0 0 1013.9 - 0.0 - - - - - - -
25/07:00am 16.7 E 2 4 1013.7 - 0.0 - - - - - - -
25/06:30am 15.1 CALM 0 0 1013.5 - 0.0 - - - - - - -
25/06:00am 15.5 CALM 0 0 1013.3 - 0.0 - - - - - - -
25/05:30am 15.8 S 3 4 1012.9 - 0.0 - - - - - - -
25/05:00am 15.9 SSW 4 4 1012.6 - 0.0 - - - - - - -
25/04:30am 15.8 CALM 0 0 1012.4 - 0.0 - - - - - - -
25/04:00am 16.4 CALM 0 0 1012.3 - 0.0 - - - - - - -
25/03:30am 17.0 W 1 3 1012.4 - 0.0 - - - - - - -
25/03:00am 18.0 CALM 0 0 1012.4 - 0.0 - - - - - - -
25/02:30am 19.4 SW 4 5 1012.4 - 0.0 - - - - - - -
25/02:00am 19.3 SW 6 6 1012.5 - 0.0 - - - - - - -
25/01:30am 19.7 SW 4 5 1012.8 - 0.0 - - - - - - -
25/01:00am 19.8 SW 5 6 1013.0 - 0.0 - - - - - - -
25/12:30am 20.0 SSW 5 6 1013.2 - 0.0 - - - - - - -
25/12:00am 20.2 SSW 5 5 1013.3 - 0.0 - - - - - - -
 
Date/Time
WST
Temp

°C
Wind Pressure Rain
since 9am
mm
Weather Cloud Vis
km
Sea
Height
m
Swell
Dir
 
Speed
knots
Gust
knots
hPa Trend Height
m
Period
s
Dir
24/11:30pm 20.6 SSW 5 6 1013.3 - 0.0 - - - - - - -
24/11:00pm 20.4 SW 5 6 1013.2 - 0.0 - - - - - - -
24/10:30pm 20.4 SW 5 6 1013.3 - 0.0 - - - - - - -
24/10:00pm 20.5 SW 4 5 1013.4 - 0.0 - - - - - - -
24/09:30pm 20.6 WSW 5 5 1013.6 - 0.0 - - - - - - -
24/09:00pm 20.8 WSW 4 6 1013.7 - 0.0 - - - - - - -
24/08:30pm 21.0 W 5 6 1013.7 - 0.0 - - - - - - -
24/08:00pm 21.3 W 4 5 1013.6 - 0.0 - - - - - - -
24/07:30pm 21.4 W 5 5 1013.6 - 0.0 - - - - - - -
24/07:00pm 21.7 WNW 5 6 1013.5 - 0.0 - - - - - - -
24/06:30pm 21.9 WNW 3 5 1013.2 - 0.0 - - - - - - -
24/06:00pm 22.7 NW 4 5 1013.0 - 0.0 - - - - - - -
24/05:30pm 24.2 W 5 6 1012.8 - 0.0 - - - - - - -
24/05:00pm 25.9 NW 5 7 1012.7 - 0.0 - - - - - - -
24/04:30pm 26.4 NW 7 10 1012.4 - 0.0 - - - - - - -
24/04:00pm 27.0 NW 8 11 1012.3 - 0.0 - - - - - - -
24/03:30pm 27.6 NW 8 12 1012.2 - 0.0 - - - - - - -
24/03:00pm 28.1 NW 8 11 1012.2 - 0.0 - - - - - - -

Other Formats:

Comma delimited format used in spreadsheet applications
http://www.bom.gov.au/fwo/IDW60701/IDW60701.94200.axf

JavaScript Object Notation format (JSON) in row-major order
http://www.bom.gov.au/fwo/IDW60701/IDW60701.94200.json